• Join FlightAware (Why Join?)
  • Login
  • US Flag 
11:07PM EDT


 

Airport Tracker/Info


-or-


 

Live Flight TrackerFlight Track Log ✈ EJM916 ✈ 13-Feb-2014 ✈ KPBI - TQPF / AXA

Flight Track Log - Related Links

Times and Time Zones

All times are in EST time to prevent confusion due to time zone crossing. See the EJM916 flight status page for this flight to view local times or setup timezone preferences in your user account.

Time Position Orientation Groundspeed Altitude Reporting Facility
EST Latitude Longitude Course Direction KTS MPH feet Rate Location/Type
09:01AM 26.6175 -80.0658 132° Southeast 356 410 7,000  Level Miami Center
09:02AM 26.6386 -79.9642 77° East 356 410 7,100  Climbing Miami Center
09:03AM 26.6572 -79.8647 78° East 338 389 7,100  Level Miami Center
09:04AM 26.6667 -79.1948 90° East  Level FlightAware Approximate
09:04AM 26.6761 -79.7628 78° East 333 383 7,100  Level Miami Center
09:05AM 26.6104 -79.0713 132° Southeast  Level FlightAware Approximate
09:05AM 26.6781 -79.6606 89° East 327 376 9,200  Level Miami Center
09:06AM 26.6758 -79.5511 91° East 337 388 12,500 3,180 Climbing Miami Center
09:07AM 26.6781 -79.4350 89° East 363 418 15,600 2,700 Climbing Miami Center
09:08AM 26.6697 -79.3117 94° East 386 444 17,900 2,340 Climbing Miami Center
09:09AM 26.6128 -79.2128 123° Southeast 403 464 20,300 2,040 Climbing Miami Center
09:10AM 26.5417 -79.0931 124° Southeast 414 476 22,000 1,740 Climbing Miami Center
09:11AM 26.4744 -78.9781 123° Southeast 427 491 23,800 1,860 Climbing Miami Center
09:12AM 26.4072 -78.8631 123° Southeast 439 505 25,800 2,220 Climbing Miami Center
09:13AM 26.3375 -78.7461 124° Southeast 444 511 28,300 2,340 Climbing Miami Center
09:14AM 26.2700 -78.6336 124° Southeast 444 511 30,500 1,740 Climbing Miami Center
09:15AM 26.2214 -78.5011 112° Southeast 444 511 31,800 1,080 Climbing Miami Center
09:16AM 26.1792 -78.3522 108° East 470 541 32,700 960 Climbing Miami Center
09:17AM 26.1347 -78.2081 109° East 483 556 33,800 840 Climbing Miami Center
09:18AM 26.0625 -78.0778 122° Southeast 493 567 34,400 600 Climbing Miami Center
09:19AM 26.0028 -77.9731 122° Southeast 493 567 35,000 780 Climbing Miami Center
09:20AM 25.9181 -77.8361 125° Southeast 493 567 36,000 1,020 Climbing Miami Center
09:21AM 25.8394 -77.7083 124° Southeast 499 574 37,100 960 Climbing Miami Center
09:22AM 25.7608 -77.5833 125° Southeast 499 574 38,000 900 Climbing Miami Center
09:23AM 25.6736 -77.4467 125° Southeast 499 574 38,900 480 Climbing Miami Center
09:24AM 25.5967 -77.3242 125° Southeast 499 574 39,000  Climbing Miami Center
09:25AM 25.5178 -77.1881 123° Southeast 504 580 39,000  Level Miami Center
09:26AM 25.4406 -77.0567 123° Southeast 509 586 39,000  Level Miami Center
09:27AM 25.3592 -76.9256 124° Southeast 514 592 39,000  Level Miami Center
09:28AM 25.2839 -76.7992 123° Southeast 514 592 39,000  Level Miami Center
09:29AM 25.2044 -76.6636 123° Southeast 514 592 39,000  Level Miami Center
09:30AM 25.1289 -76.5328 123° Southeast 514 592 39,000  Level Miami Center
09:31AM 25.0514 -76.4022 123° Southeast 514 592 39,000  Level Miami Center
09:32AM 24.9819 -76.2856 123° Southeast 514 592 39,000 180 Level Miami Center
09:33AM 24.9039 -76.1578 124° Southeast 509 586 39,400 660 Climbing Miami Center
09:34AM 24.8281 -76.0275 123° Southeast 509 586 40,400 780 Climbing Miami Center
09:35AM 24.7458 -75.8978 125° Southeast 486 559 41,000 300 Climbing Miami Center
09:36AM 24.6717 -75.7703 123° Southeast 486 559 41,000  Level Miami Center
09:37AM 24.5933 -75.6406 124° Southeast 491 565 41,000  Level Miami Center
09:38AM 24.5150 -75.5136 124° Southeast 491 565 41,000  Level Miami Center
09:39AM 24.4386 -75.3867 123° Southeast 496 571 41,000  Level Miami Center
09:40AM 24.3600 -75.2575 124° Southeast 506 582 41,000  Level Miami Center
09:41AM 24.2961 -75.1533 124° Southeast 506 582 41,000  Level Miami Center
09:42AM 24.2108 -75.0133 124° Southeast 506 582 41,000  Level Miami Center
09:43AM 24.1297 -74.8847 125° Southeast 506 582 41,000  Level Miami Center
09:44AM 24.0528 -74.7586 124° Southeast 506 582 41,000  Level Miami Center
09:45AM 23.9714 -74.6325 125° Southeast 506 582 41,000  Level Miami Center
09:46AM 23.8964 -74.5044 123° Southeast 501 577 41,000  Level Miami Center
09:47AM 23.8172 -74.3808 125° Southeast 501 577 41,000  Level Miami Center
09:48AM 23.7397 -74.2578 125° Southeast 501 577 41,000  Level Miami Center
09:49AM 23.6603 -74.1300 124° Southeast 501 577 41,000  Level Miami Center
09:50AM 23.5828 -74.0069 124° Southeast 501 577 41,000  Level Miami Center
09:51AM 23.5031 -73.8819 125° Southeast 501 577 41,000  Level Miami Center
09:52AM 23.4253 -73.7547 124° Southeast 501 577 41,000  Level Miami Center
09:53AM 23.3411 -73.6300 126° Southeast 501 577 41,000  Level Miami Center
09:54AM 23.2631 -73.5033 124° Southeast 501 577 41,000  Level Miami Center
09:55AM 23.1831 -73.3789 125° Southeast 501 577 41,000  Level Miami Center
09:56AM 23.1006 -73.2522 125° Southeast 506 582 41,000  Level Miami Center
09:57AM 23.0136 -73.1128 124° Southeast 506 582 41,000  Level Miami Center
09:58AM 22.9481 -73.0019 123° Southeast 501 577 41,000  Level Miami Center
09:59AM 22.8656 -72.8803 126° Southeast 501 577 41,000  Level Miami Center
10:00AM 22.7869 -72.7522 124° Southeast 501 577 41,000  Level Miami Center
10:01AM 22.7044 -72.6311 126° Southeast 501 577 41,000  Level Miami Center
10:02AM 22.6236 -72.5078 125° Southeast 501 577 41,000  Level Miami Center
10:03AM 22.5469 -72.3822 123° Southeast 501 577 41,000  Level Miami Center
10:04AM 22.4639 -72.2614 127° Southeast 501 577 41,000  Level Miami Center
10:05AM 22.3847 -72.1319 123° Southeast 506 582 41,000  Level Miami Center
10:06AM 22.3017 -72.0092 126° Southeast 506 582 41,000  Level Miami Center
10:07AM 22.2225 -71.8867 125° Southeast 506 582 41,000  Level Miami Center
10:08AM 22.1411 -71.7642 126° Southeast 506 582 41,000  Level Miami Center
10:09AM 22.0597 -71.6397 125° Southeast 506 582 41,000  Level Miami Center
10:10AM 21.9803 -71.5153 125° Southeast 500 575 41,000  Level Miami Center
10:11AM 21.8989 -71.3914 125° Southeast 505 581 41,000  Level Miami Center
10:12AM 21.8169 -71.2672 125° Southeast 505 581 41,000  Level Miami Center
10:13AM 21.7375 -71.1433 125° Southeast 505 581 41,000  Level Miami Center
10:14AM 21.6533 -71.0175 126° Southeast 505 581 41,000  Level Miami Center
10:15AM 21.5606 -70.8811 126° Southeast 505 581 41,000  Level Miami Center
10:16AM 21.4783 -70.7533 125° Southeast 511 588 41,000  Level Miami Center
10:17AM 21.3919 -70.6303 127° Southeast 511 588 41,000  Level Miami Center
10:18AM 21.3119 -70.5072 125° Southeast 511 588 41,000  Level Miami Center
10:19AM 21.2297 -70.3844 126° Southeast 511 588 41,000  Level Miami Center
10:20AM 21.1453 -70.2597 126° Southeast 511 588 41,000  Level Miami Center
10:21AM 21.0625 -70.1347 125° Southeast 511 588 41,000  Level Miami Center
10:22AM 20.9781 -70.0125 126° Southeast 516 594 41,000  Level Miami Center
10:23AM 20.8978 -69.8925 126° Southeast 510 587 41,000  Level Miami Center
10:24AM 20.8172 -69.7703 125° Southeast 510 587 41,000  Level Miami Center
10:25AM 20.7322 -69.6461 126° Southeast 510 587 41,000  Level Miami Center
10:26AM 20.6517 -69.5267 126° Southeast 510 587 41,000  Level Miami Center
10:27AM 20.5686 -69.4028 126° Southeast 510 587 41,000  Level Miami Center
10:28AM 20.4836 -69.2836 127° Southeast 510 587 41,000  Level Miami Center
10:29AM 20.4028 -69.1644 126° Southeast 510 587 41,000  Level Miami Center
10:30AM 20.3197 -69.0433 126° Southeast 510 587 41,000  Level Miami Center
10:31AM 20.2389 -68.9219 125° Southeast 503 579 41,000  Level Miami Center
10:32AM 20.1597 -68.7986 124° Southeast 503 579 41,000  Level Miami Center
10:33AM 20.1125 -68.6539 109° East 503 579 41,000  Level Miami Center
10:34AM 20.0672 -68.5069 108° East 513 590 41,000  Level Miami Center
10:35AM 20.0181 -68.3644 110° East 513 590 41,000  Level Miami Center
10:36AM 19.9744 -68.2153 107° East 518 596 41,000  Level Miami Center
10:37AM 19.9333 -68.1167 114° Southeast 520 598 41,000  Level San Juan Center
10:38AM 19.8833 -67.9667 109° East 520 598 41,000  Level San Juan Center
10:39AM 19.8333 -67.8333 112° Southeast 520 598 41,000  Level San Juan Center
10:40AM 19.7833 -67.6833 109° East 520 598 41,000  Level San Juan Center
10:41AM 19.7333 -67.5333 109° East 520 598 41,000  Level San Juan Center
10:42AM 19.6833 -67.4000 112° Southeast 520 598 41,000  Level San Juan Center
10:43AM 19.6333 -67.2500 109° East 520 598 41,000  Level San Juan Center
10:44AM 19.5833 -67.1000 109° East 520 598 41,000  Level San Juan Center
10:45AM 19.5333 -66.9667 112° Southeast 520 598 41,000  Level San Juan Center
10:46AM 19.4833 -66.8167 109° East 520 598 41,000  Level San Juan Center
10:47AM 19.4333 -66.6667 109° East 520 598 41,000  Level San Juan Center
10:48AM 19.3833 -66.5333 112° Southeast 520 598 41,000  Level San Juan Center
10:49AM 19.3500 -66.3833 103° East 520 598 41,000  Level San Juan Center
10:50AM 19.3000 -66.2333 109° East 520 598 41,000  Level San Juan Center
10:51AM 19.2500 -66.0833 109° East 520 598 41,000 -60 Level San Juan Center
10:52AM 19.1833 -65.9500 118° Southeast 520 598 40,900 -540 Descending San Juan Center
10:53AM 19.1333 -65.8000 109° East 530 610 40,000 -1,080 Descending San Juan Center
10:54AM 19.0833 -65.6167 106° East 540 621 38,800 -1,080 Descending San Juan Center
10:55AM 19.0333 -65.4833 112° Southeast 550 633 37,900 -960 Descending San Juan Center
10:56AM 18.9833 -65.3333 109° East 540 621 36,900 -1,020 Descending San Juan Center
10:57AM 18.9333 -65.1833 109° East 540 621 35,900 -1,140 Descending San Juan Center
10:58AM 18.8667 -65.0167 113° Southeast 540 621 34,700 -1,800 Descending San Juan Center
10:59AM 18.8167 -64.8833 112° Southeast 530 610 32,400 -2,400 Descending San Juan Center
11:00AM 18.7667 -64.7500 112° Southeast 510 587 30,000 -2,400 Descending San Juan Center
11:01AM 18.7167 -64.6000 109° East 510 587 27,700 -2,340 Descending San Juan Center
11:02AM 18.6667 -64.4667 112° Southeast 500 575 25,300 -2,340 Descending San Juan Center
11:03AM 18.6167 -64.3333 112° Southeast 480 552 23,100 -2,280 Descending San Juan Center
11:04AM 18.5833 -64.2000 105° East 460 529 20,800 -2,160 Descending San Juan Center
11:05AM 18.5333 -64.0833 114° Southeast 440 506 18,800 -2,040 Descending San Juan Center
11:06AM 18.4833 -63.9667 114° Southeast 430 495 16,800 -1,860 Descending San Juan Center
11:07AM 18.4500 -63.8667 109° East 390 449 15,100 -1,740 Descending San Juan Center
11:08AM 18.4167 -63.7500 107° East 400 460 13,400 -1,860 Descending San Juan Center
11:09AM 18.3833 -63.6500 109° East 370 426 11,400 -2,040 Descending San Juan Center
11:11AM 18.3065 -63.4329 108° East  Level FlightAware Approximate
11:18AM 18.2000 -63.0500 90° East  Level FlightAware Approximate
11:19AM 18.2048 -63.0551 90° East  Level Estimated
11:20AM 18.2000 -63.0500 90° East  Level FlightAware Approximate
11:21AM 18.2048 -63.0551 90° East  Level Estimated
11:22AM 18.2000 -63.0500 90° East  Level FlightAware Approximate
11:23AM 18.2048 -63.0551 90° East  Level Estimated
11:24AM 18.2000 -63.0500 90° East  Level FlightAware Approximate
11:25AM 18.2048 -63.0551 90° East  Level Estimated
11:26AM 18.2000 -63.0500 90° East  Level FlightAware Approximate
11:27AM 18.2048 -63.0551 90° East  Level Estimated
11:28AM 18.2000 -63.0500 90° East  Level FlightAware Approximate
11:29AM 18.2048 -63.0551 90° East  Level Estimated
11:30AM 18.2000 -63.0500 90° East  Level FlightAware Approximate
11:31AM 18.2048 -63.0551 90° East  Level Estimated